Terminal Aerodrome Forecast
Issued by NWS Mt. Holly, NJ

Home | Current Version | Previous Version | Text Only | Print | Product List | Glossary On
Versions: 1 2 3 4 5 6 7 8 9 10 11 12 13 14 15 16 17 18 19 20 21 22 23 24 25 26
000
FTUS41 KPHI 211202 AAA
TAFACY
TAF AMD
KACY 211202Z 2112/2212 27012KT P6SM SCT035 BKN060
      TEMPO 2112/2113 -SHRA BKN035
     FM211300 31012G20KT P6SM SCT060
     FM220000 23008KT P6SM SCT100=

USA.gov is the U.S. government's official web portal to all federal, state and local government web resources and services.